createdAt,value
2019-03-29T00:01:29.506Z,-3.29
2019-03-29T00:04:00.846Z,-3.34
2019-03-29T00:06:31.729Z,-3.30
2019-03-29T00:09:02.383Z,-3.32
2019-03-29T00:11:33.239Z,-3.34
2019-03-29T00:14:03.869Z,-3.44
2019-03-29T00:16:38.406Z,-3.41
2019-03-29T00:19:09.181Z,-3.45
2019-03-29T00:21:39.914Z,-3.42
2019-03-29T00:24:10.583Z,-3.36
2019-03-29T00:26:41.336Z,-3.37
2019-03-29T00:29:11.972Z,-3.31
2019-03-29T00:31:42.743Z,-3.28
2019-03-29T00:34:13.394Z,-3.27
2019-03-29T00:36:44.254Z,-3.20
2019-03-29T00:39:15.253Z,-3.15
2019-03-29T00:41:46.064Z,-3.22
2019-03-29T00:44:17.008Z,-3.28
2019-03-29T00:46:47.897Z,-3.32
2019-03-29T00:49:18.533Z,-3.33
2019-03-29T00:51:49.283Z,-3.44
2019-03-29T00:54:20.141Z,-3.51
2019-03-29T00:56:50.895Z,-3.49
2019-03-29T00:59:21.427Z,-3.45
2019-03-29T01:01:53.407Z,-3.43
2019-03-29T01:04:24.286Z,-3.48
2019-03-29T01:06:55.036Z,-3.43
2019-03-29T01:09:25.788Z,-3.41
2019-03-29T01:11:56.645Z,-3.39
2019-03-29T01:14:27.502Z,-3.28
2019-03-29T01:16:58.254Z,-3.27
2019-03-29T01:19:29.188Z,-3.19
2019-03-29T01:22:00.564Z,-3.17
2019-03-29T01:24:31.434Z,-3.03
2019-03-29T01:27:02.291Z,-2.94
2019-03-29T01:29:33.046Z,-2.88
2019-03-29T01:32:03.801Z,-2.83
2019-03-29T01:34:34.551Z,-2.85
2019-03-29T01:37:05.309Z,-3.01
2019-03-29T01:39:36.059Z,-3.06
2019-03-29T01:42:07.124Z,-3.06
2019-03-29T01:44:37.467Z,-3.09
2019-03-29T01:47:08.203Z,-3.12
2019-03-29T01:49:38.975Z,-3.00
2019-03-29T01:52:09.607Z,-2.98
2019-03-29T01:54:40.362Z,-2.95
2019-03-29T01:57:11.237Z,-2.94
2019-03-29T01:59:42.321Z,-2.91
2019-03-29T02:02:14.772Z,-2.74
2019-03-29T02:04:45.542Z,-2.57
2019-03-29T02:07:16.193Z,-2.58
2019-03-29T02:09:46.927Z,-2.42
2019-03-29T02:12:17.905Z,-2.39
2019-03-29T02:14:48.657Z,-2.30
2019-03-29T02:17:19.312Z,-2.25
2019-03-29T02:19:50.169Z,-2.07
2019-03-29T02:22:20.904Z,-1.96
2019-03-29T02:24:51.557Z,-1.91
2019-03-29T02:27:22.267Z,-1.80
2019-03-29T02:29:53.182Z,-1.81
2019-03-29T02:32:25.098Z,-1.79
2019-03-29T02:34:56.019Z,-1.84
2019-03-29T02:37:26.664Z,-1.82
2019-03-29T02:39:57.409Z,-1.62
2019-03-29T02:42:28.270Z,-1.67
2019-03-29T02:44:59.036Z,-1.71
2019-03-29T02:47:29.687Z,-1.78
2019-03-29T02:50:00.539Z,-1.60
2019-03-29T02:52:31.409Z,-1.55
2019-03-29T02:55:02.033Z,-1.66
2019-03-29T02:57:32.906Z,-1.68
2019-03-29T03:00:04.993Z,-1.68
2019-03-29T03:02:36.562Z,-1.58
2019-03-29T03:05:08.349Z,-1.60
2019-03-29T03:07:38.890Z,-1.62
2019-03-29T03:10:10.061Z,-1.71
2019-03-29T03:12:40.509Z,-1.80
2019-03-29T03:15:11.028Z,-1.89
2019-03-29T03:17:41.904Z,-1.98
2019-03-29T03:20:15.909Z,-2.05
2019-03-29T03:22:46.376Z,-2.01
2019-03-29T03:25:17.027Z,-1.98
2019-03-29T03:27:47.784Z,-1.77
2019-03-29T03:30:18.638Z,-1.71
2019-03-29T03:32:49.404Z,-1.60
2019-03-29T03:35:19.941Z,-1.72
2019-03-29T03:37:50.798Z,-1.84
2019-03-29T03:40:21.558Z,-1.79
2019-03-29T03:42:52.287Z,-1.77
2019-03-29T03:45:22.958Z,-1.91
2019-03-29T03:47:53.794Z,-1.95
2019-03-29T03:50:40.552Z,-1.83
2019-03-29T03:53:11.092Z,-1.86
2019-03-29T03:55:42.174Z,-1.78
2019-03-29T03:58:12.943Z,-1.83
2019-03-29T04:00:55.233Z,-1.71
2019-03-29T04:03:27.090Z,-1.62
2019-03-29T04:05:57.507Z,-1.56
2019-03-29T04:08:28.169Z,-1.46
2019-03-29T04:10:59.027Z,-1.24
2019-03-29T04:13:38.970Z,-1.01
2019-03-29T04:16:09.739Z,-0.88
2019-03-29T04:18:40.394Z,-0.63
2019-03-29T04:21:11.130Z,-0.46
2019-03-29T04:23:41.901Z,-0.18
2019-03-29T04:26:12.651Z,-0.07
2019-03-29T04:28:43.303Z,0.17
2019-03-29T04:31:14.257Z,0.35
2019-03-29T04:33:45.101Z,0.57
2019-03-29T04:36:15.766Z,0.73
2019-03-29T04:38:46.522Z,0.84
2019-03-29T04:41:17.265Z,1.06
2019-03-29T04:43:48.031Z,1.30
2019-03-29T04:46:18.683Z,1.54
2019-03-29T04:48:49.547Z,1.67
2019-03-29T04:51:20.290Z,1.68
2019-03-29T04:53:51.042Z,1.71
2019-03-29T04:56:21.696Z,1.83
2019-03-29T04:58:52.551Z,1.87
2019-03-29T05:01:23.306Z,1.99
2019-03-29T05:03:55.070Z,2.15
2019-03-29T05:06:25.716Z,2.17
2019-03-29T05:08:55.795Z,2.18
2019-03-29T05:11:26.319Z,2.25
2019-03-29T05:13:56.973Z,2.33
2019-03-29T05:16:27.829Z,2.42
2019-03-29T05:18:58.685Z,2.62
2019-03-29T05:21:29.442Z,2.79
2019-03-29T05:24:00.075Z,2.87
2019-03-29T05:26:30.946Z,2.93
2019-03-29T05:29:01.702Z,3.11
2019-03-29T05:31:32.452Z,3.37
2019-03-29T05:34:03.312Z,3.68
2019-03-29T05:36:34.165Z,3.92
2019-03-29T05:39:05.964Z,4.09
2019-03-29T05:41:36.391Z,4.42
2019-03-29T05:44:07.023Z,4.24
2019-03-29T05:46:36.998Z,4.32
2019-03-29T05:49:07.528Z,4.15
2019-03-29T05:51:38.279Z,4.10
2019-03-29T05:54:09.135Z,4.37
2019-03-29T05:56:39.996Z,4.74
2019-03-29T05:59:10.747Z,4.86
2019-03-29T06:01:41.284Z,5.25
2019-03-29T06:04:11.930Z,5.80
2019-03-29T06:06:42.802Z,6.27
2019-03-29T06:09:13.558Z,6.43
2019-03-29T06:11:44.206Z,5.88
2019-03-29T06:14:15.063Z,5.54
2019-03-29T06:16:45.818Z,5.00
2019-03-29T06:19:16.570Z,4.87
2019-03-29T06:21:47.223Z,4.64
2019-03-29T06:24:17.958Z,4.72
2019-03-29T06:26:48.753Z,4.52
2019-03-29T06:29:19.466Z,4.52
2019-03-29T06:31:49.648Z,4.61
2019-03-29T06:34:20.070Z,4.63
2019-03-29T06:36:50.184Z,4.76
2019-03-29T06:39:21.392Z,4.73
2019-03-29T06:41:52.321Z,4.62
2019-03-29T06:44:23.085Z,4.99
2019-03-29T06:46:53.739Z,5.12
2019-03-29T06:49:24.595Z,4.87
2019-03-29T06:51:55.349Z,5.12
2019-03-29T06:54:26.117Z,5.14
2019-03-29T06:56:56.843Z,4.91
2019-03-29T06:59:27.710Z,4.88
2019-03-29T07:01:58.347Z,4.79
2019-03-29T07:04:29.934Z,5.16
2019-03-29T07:07:00.573Z,5.56
2019-03-29T07:09:30.648Z,5.57
2019-03-29T07:12:01.159Z,5.75
2019-03-29T07:14:31.808Z,5.70
2019-03-29T07:17:01.679Z,5.36
2019-03-29T07:19:32.207Z,5.47
2019-03-29T07:22:03.270Z,5.91
2019-03-29T07:24:34.125Z,5.81
2019-03-29T07:27:04.880Z,6.31
2019-03-29T07:29:35.529Z,6.38
2019-03-29T07:32:06.387Z,6.36
2019-03-29T07:34:37.243Z,6.01
2019-03-29T07:37:07.999Z,5.89
2019-03-29T07:39:38.650Z,5.96
2019-03-29T07:42:09.504Z,5.91
2019-03-29T07:44:40.138Z,6.20
2019-03-29T07:47:10.911Z,6.40
2019-03-29T07:49:41.561Z,6.87
2019-03-29T07:52:12.296Z,7.08
2019-03-29T07:54:43.072Z,6.94
2019-03-29T07:57:14.026Z,7.14
2019-03-29T07:59:44.882Z,7.26
2019-03-29T08:02:15.519Z,7.33
2019-03-29T08:04:46.695Z,7.05
2019-03-29T08:07:27.065Z,7.00
2019-03-29T08:09:49.824Z,6.75
2019-03-29T08:12:22.027Z,6.71
2019-03-29T08:14:52.885Z,7.06
2019-03-29T08:17:23.843Z,7.13
2019-03-29T08:20:35.604Z,7.36
2019-03-29T08:22:35.317Z,7.69
2019-03-29T08:25:06.126Z,7.54
2019-03-29T08:27:36.995Z,7.65
2019-03-29T08:30:06.943Z,7.59
2019-03-29T08:32:37.349Z,7.14
2019-03-29T08:35:08.101Z,7.31
2019-03-29T08:37:38.875Z,7.56
2019-03-29T08:40:09.509Z,7.21
2019-03-29T08:42:40.178Z,7.28
2019-03-29T08:45:10.830Z,7.49
2019-03-29T08:47:41.683Z,7.73
2019-03-29T08:50:12.424Z,8.27
2019-03-29T08:52:43.191Z,7.82
2019-03-29T08:55:17.240Z,7.87
2019-03-29T08:57:46.539Z,7.63
2019-03-29T09:00:20.464Z,7.74
2019-03-29T09:02:51.321Z,7.69
2019-03-29T09:05:23.201Z,7.97
2019-03-29T09:07:53.953Z,8.41
2019-03-29T09:10:26.190Z,8.56
2019-03-29T09:12:56.994Z,8.90
2019-03-29T09:15:27.890Z,8.92
2019-03-29T09:17:59.950Z,9.20
2019-03-29T09:20:34.104Z,8.67
2019-03-29T09:23:03.677Z,8.55
2019-03-29T09:25:34.427Z,8.66
2019-03-29T09:28:05.079Z,8.71
2019-03-29T09:30:38.100Z,8.97
2019-03-29T09:33:09.061Z,8.85
2019-03-29T09:35:42.569Z,8.55
2019-03-29T09:38:12.003Z,8.58
2019-03-29T09:40:46.613Z,8.74
2019-03-29T09:43:14.844Z,8.55
2019-03-29T09:45:45.695Z,8.90
2019-03-29T09:48:16.328Z,9.05
2019-03-29T09:50:50.562Z,8.88
2019-03-29T09:53:19.286Z,8.47
2019-03-29T09:55:53.281Z,8.55
2019-03-29T09:58:21.796Z,8.85
2019-03-29T10:00:51.876Z,8.77
2019-03-29T10:03:22.402Z,9.08
2019-03-29T10:05:54.267Z,8.77
2019-03-29T10:08:25.137Z,9.05
2019-03-29T10:10:55.871Z,9.09
2019-03-29T10:13:26.541Z,8.84
2019-03-29T10:15:57.397Z,9.16
2019-03-29T10:18:28.152Z,9.74
2019-03-29T10:20:58.907Z,9.39
2019-03-29T10:23:29.555Z,9.45
2019-03-29T10:26:00.210Z,9.51
2019-03-29T10:28:30.739Z,9.55
2019-03-29T10:31:00.821Z,9.45
2019-03-29T10:33:31.346Z,9.10
2019-03-29T10:36:03.519Z,9.14
2019-03-29T10:38:35.800Z,9.15
2019-03-29T10:41:11.687Z,8.96
2019-03-29T10:43:42.542Z,9.45
2019-03-29T10:46:13.279Z,9.64
2019-03-29T10:48:43.948Z,9.50
2019-03-29T10:51:16.320Z,9.50
2019-03-29T10:53:46.872Z,10.01
2019-03-29T10:56:17.629Z,10.19
2019-03-29T10:58:48.297Z,9.61
2019-03-29T11:01:19.133Z,10.18
2019-03-29T11:03:49.783Z,9.20
2019-03-29T11:06:21.576Z,9.31
2019-03-29T11:08:52.331Z,9.49
2019-03-29T11:14:17.960Z,9.50
2019-03-29T11:16:53.230Z,9.99
2019-03-29T11:19:23.679Z,10.44
2019-03-29T11:21:54.534Z,10.46
2019-03-29T11:24:26.924Z,10.34
2019-03-29T11:26:57.582Z,10.29
2019-03-29T11:29:29.641Z,10.35
2019-03-29T11:32:00.499Z,10.76
2019-03-29T11:34:31.149Z,11.17
2019-03-29T11:37:08.362Z,10.65
2019-03-29T11:39:39.016Z,10.44
2019-03-29T11:42:09.749Z,10.65
2019-03-29T11:44:40.521Z,10.19
2019-03-29T11:47:11.174Z,10.43
2019-03-29T11:49:42.029Z,10.51
2019-03-29T11:52:12.768Z,10.42
2019-03-29T11:54:44.050Z,10.11
2019-03-29T11:57:14.581Z,9.65
2019-03-29T11:59:45.456Z,9.65
2019-03-29T12:02:30.144Z,9.81
2019-03-29T12:04:48.090Z,9.90
2019-03-29T12:07:25.488Z,9.78
2019-03-29T12:09:56.141Z,10.33
2019-03-29T12:12:27.740Z,10.79
2019-03-29T12:14:58.247Z,10.90
2019-03-29T12:17:28.897Z,10.69
2019-03-29T12:19:59.668Z,10.43
2019-03-29T12:22:30.526Z,10.33
2019-03-29T12:25:01.374Z,10.15
2019-03-29T12:27:32.032Z,10.05
2019-03-29T12:30:02.694Z,9.80
2019-03-29T12:32:33.221Z,10.28
2019-03-29T12:35:05.519Z,10.41
2019-03-29T12:37:35.969Z,9.95
2019-03-29T12:40:07.666Z,10.16
2019-03-29T12:42:38.072Z,10.08
2019-03-29T12:45:11.298Z,10.54
2019-03-29T12:47:42.154Z,10.14
2019-03-29T12:50:12.888Z,10.49
2019-03-29T12:52:43.559Z,10.00
2019-03-29T12:55:14.396Z,10.14
2019-03-29T12:57:45.057Z,10.27
2019-03-29T13:00:16.023Z,10.48
2019-03-29T13:02:47.086Z,10.67
2019-03-29T13:05:17.944Z,10.61
2019-03-29T13:07:52.904Z,10.35
2019-03-29T13:10:21.786Z,9.74
2019-03-29T13:12:51.863Z,9.77
2019-03-29T13:15:23.515Z,9.73
2019-03-29T13:17:54.252Z,9.82
2019-03-29T13:20:24.226Z,9.99
2019-03-29T13:22:54.753Z,10.14
2019-03-29T13:25:25.712Z,10.10
2019-03-29T13:27:59.445Z,10.18
2019-03-29T13:30:28.856Z,10.36
2019-03-29T13:32:59.609Z,9.82
2019-03-29T13:35:30.263Z,10.10
2019-03-29T13:38:01.117Z,10.35
2019-03-29T13:40:31.854Z,10.19
2019-03-29T13:43:02.978Z,10.30
2019-03-29T13:45:33.785Z,10.27
2019-03-29T13:48:04.540Z,9.95
2019-03-29T13:50:34.602Z,10.11
2019-03-29T13:53:05.025Z,10.18
2019-03-29T13:55:35.760Z,10.27
2019-03-29T13:58:06.308Z,9.90
2019-03-29T14:00:36.243Z,10.14
2019-03-29T14:03:06.693Z,10.10
2019-03-29T14:05:37.240Z,9.73
2019-03-29T14:08:09.033Z,9.52
2019-03-29T14:10:39.258Z,9.36
2019-03-29T14:13:09.137Z,9.34
2019-03-29T14:15:39.642Z,9.55
2019-03-29T14:18:10.312Z,9.68
2019-03-29T14:20:40.171Z,9.82
2019-03-29T14:23:10.574Z,10.04
2019-03-29T14:25:41.328Z,10.30
2019-03-29T14:28:13.514Z,9.87
2019-03-29T14:30:44.167Z,9.80
2019-03-29T14:33:15.013Z,9.99
2019-03-29T14:35:46.357Z,10.18
2019-03-29T14:38:17.472Z,10.60
2019-03-29T14:40:48.229Z,11.31
2019-03-29T14:43:18.976Z,11.38
2019-03-29T14:45:49.835Z,10.27
2019-03-29T14:48:20.382Z,9.91
2019-03-29T14:51:00.922Z,9.72
2019-03-29T14:53:38.993Z,9.94
2019-03-29T14:56:15.189Z,9.68
2019-03-29T14:58:53.391Z,9.53
2019-03-29T15:01:38.580Z,9.46
2019-03-29T15:04:09.290Z,9.20
2019-03-29T15:06:39.823Z,9.02
2019-03-29T15:09:11.514Z,8.98
2019-03-29T15:11:42.373Z,8.95
2019-03-29T15:14:13.024Z,9.00
2019-03-29T15:16:42.985Z,8.85
2019-03-29T15:19:13.121Z,8.68
2019-03-29T15:21:43.265Z,8.66
2019-03-29T15:24:13.686Z,8.54
2019-03-29T15:26:44.424Z,8.50
2019-03-29T15:29:15.092Z,8.47
2019-03-29T15:31:45.053Z,8.43
2019-03-29T15:34:15.456Z,8.41
2019-03-29T15:36:47.192Z,8.39
2019-03-29T15:39:17.389Z,8.38
2019-03-29T15:41:48.130Z,8.29
2019-03-29T15:44:19.208Z,8.21
2019-03-29T15:46:49.738Z,8.17
2019-03-29T15:49:20.506Z,8.09
2019-03-29T15:51:51.364Z,7.96
2019-03-29T15:54:22.017Z,7.94
2019-03-29T15:56:51.982Z,7.87
2019-03-29T15:59:22.384Z,7.76
2019-03-29T16:01:53.159Z,7.76
2019-03-29T16:04:23.684Z,7.71
2019-03-29T16:06:54.560Z,7.76
2019-03-29T16:09:26.335Z,7.65
2019-03-29T16:11:57.075Z,7.60
2019-03-29T16:14:27.846Z,7.55
2019-03-29T16:16:58.493Z,7.59
2019-03-29T16:19:29.246Z,7.53
2019-03-29T16:22:00.005Z,7.53
2019-03-29T16:24:30.767Z,7.51
2019-03-29T16:27:01.401Z,7.52
2019-03-29T16:29:32.266Z,7.48
2019-03-29T16:32:03.025Z,7.38
2019-03-29T16:34:33.774Z,7.36
2019-03-29T16:37:04.424Z,7.36
2019-03-29T16:39:35.280Z,7.37
2019-03-29T16:42:06.034Z,7.38
2019-03-29T16:44:36.788Z,7.31
2019-03-29T16:47:07.645Z,7.32
2019-03-29T16:49:38.500Z,7.24
2019-03-29T16:52:09.154Z,7.21
2019-03-29T16:54:39.787Z,7.17
2019-03-29T16:57:10.667Z,7.12
2019-03-29T16:59:41.414Z,7.14
2019-03-29T17:02:12.167Z,7.23
2019-03-29T17:04:42.699Z,7.21
2019-03-29T17:07:13.469Z,7.26
2019-03-29T17:09:45.247Z,7.33
2019-03-29T17:12:16.103Z,7.33
2019-03-29T17:14:46.856Z,7.29
2019-03-29T17:17:17.510Z,7.29
2019-03-29T17:19:48.368Z,7.29
2019-03-29T17:22:19.004Z,7.32
2019-03-29T17:24:56.830Z,7.32
2019-03-29T17:27:21.956Z,7.37
2019-03-29T17:29:52.812Z,7.36
2019-03-29T17:32:22.671Z,7.35
2019-03-29T17:34:53.195Z,7.38
2019-03-29T17:37:24.563Z,7.40
2019-03-29T17:39:55.096Z,7.44
2019-03-29T17:42:26.070Z,7.42
2019-03-29T17:44:59.022Z,7.45
2019-03-29T17:47:29.007Z,7.45
2019-03-29T17:49:59.661Z,7.42
2019-03-29T17:52:30.518Z,7.41
2019-03-29T17:55:01.254Z,7.40
2019-03-29T17:57:32.023Z,7.39
2019-03-29T18:00:02.865Z,7.40
2019-03-29T18:02:33.412Z,7.36
2019-03-29T18:05:05.880Z,7.42
2019-03-29T18:07:36.249Z,7.36
2019-03-29T18:10:08.100Z,7.45
2019-03-29T18:12:38.372Z,7.47
2019-03-29T18:15:09.126Z,7.43
2019-03-29T18:17:39.002Z,7.33
2019-03-29T18:20:09.524Z,7.34
2019-03-29T18:22:40.276Z,7.34
2019-03-29T18:25:11.135Z,7.32
2019-03-29T18:27:41.992Z,7.30
2019-03-29T18:30:14.568Z,7.36
2019-03-29T18:32:45.321Z,7.35
2019-03-29T18:35:15.973Z,7.35
2019-03-29T18:37:46.744Z,7.31
2019-03-29T18:40:23.329Z,7.34
2019-03-29T18:42:54.974Z,7.34
2019-03-29T18:45:25.349Z,7.27
2019-03-29T18:47:56.437Z,7.26
2019-03-29T18:50:26.857Z,7.22
2019-03-29T18:52:57.611Z,7.21
2019-03-29T18:55:28.348Z,7.23
2019-03-29T18:57:59.118Z,7.28
2019-03-29T19:00:31.384Z,7.25
2019-03-29T19:03:01.757Z,7.20
2019-03-29T19:05:32.604Z,7.22
2019-03-29T19:08:03.767Z,7.25
2019-03-29T19:10:35.134Z,7.24
2019-03-29T19:13:05.467Z,7.25
2019-03-29T19:15:36.236Z,7.23
2019-03-29T19:18:06.889Z,7.26
2019-03-29T19:20:37.640Z,7.27
2019-03-29T19:23:08.497Z,7.28
2019-03-29T19:25:39.252Z,7.27
2019-03-29T19:28:09.781Z,7.25
2019-03-29T19:30:40.655Z,7.24
2019-03-29T19:33:11.510Z,7.26
2019-03-29T19:35:42.146Z,7.26
2019-03-29T19:38:12.225Z,7.24
2019-03-29T19:40:42.750Z,7.20
2019-03-29T19:43:13.403Z,7.21
2019-03-29T19:45:44.153Z,7.18
2019-03-29T19:48:15.013Z,7.18
2019-03-29T19:50:45.766Z,7.13
2019-03-29T19:53:16.364Z,7.12
2019-03-29T19:55:47.214Z,7.11
2019-03-29T19:58:18.097Z,7.11
2019-03-29T20:00:48.896Z,7.10
2019-03-29T20:03:19.659Z,7.11
2019-03-29T20:05:50.498Z,7.15
2019-03-29T20:08:21.124Z,7.17
2019-03-29T20:10:52.803Z,7.17
2019-03-29T20:13:23.164Z,7.21
2019-03-29T20:15:53.798Z,7.20
2019-03-29T20:18:23.774Z,7.15
2019-03-29T20:20:54.180Z,7.17
2019-03-29T20:23:24.954Z,7.25
2019-03-29T20:25:55.500Z,7.23
2019-03-29T20:28:26.356Z,7.22
2019-03-29T20:30:56.989Z,7.20
2019-03-29T20:33:27.765Z,7.20
2019-03-29T20:35:58.294Z,7.19
2019-03-29T20:38:29.167Z,7.22
2019-03-29T20:41:00.026Z,7.22
2019-03-29T20:43:30.662Z,7.17
2019-03-29T20:46:00.738Z,7.14
2019-03-29T20:48:31.268Z,7.10
2019-03-29T20:51:01.897Z,6.94
2019-03-29T20:53:32.771Z,6.83
2019-03-29T20:56:09.336Z,6.65
2019-03-29T20:58:39.987Z,6.44
2019-03-29T21:01:10.642Z,6.29
2019-03-29T21:03:40.618Z,6.24
2019-03-29T21:06:11.143Z,6.18
2019-03-29T21:08:41.895Z,6.04
2019-03-29T21:11:13.556Z,5.90
2019-03-29T21:13:44.019Z,5.83
2019-03-29T21:16:14.650Z,5.76
2019-03-29T21:18:45.404Z,5.68
2019-03-29T21:21:16.156Z,5.67
2019-03-29T21:23:47.386Z,5.64
2019-03-29T21:26:17.994Z,5.53
2019-03-29T21:28:48.856Z,5.51
2019-03-29T21:31:19.600Z,5.48
2019-03-29T21:33:50.135Z,5.48
2019-03-29T21:36:20.102Z,5.57
2019-03-29T21:38:50.899Z,5.76
2019-03-29T21:41:21.590Z,5.82
2019-03-29T21:43:52.329Z,5.88
2019-03-29T21:46:23.099Z,5.89
2019-03-29T21:48:53.746Z,5.92
2019-03-29T21:51:24.604Z,5.90
2019-03-29T21:53:55.362Z,5.87
2019-03-29T21:56:26.097Z,5.73
2019-03-29T21:58:56.766Z,5.60
2019-03-29T22:01:27.623Z,5.55
2019-03-29T22:03:58.377Z,5.54
2019-03-29T22:06:29.132Z,5.53
2019-03-29T22:08:59.987Z,5.65
2019-03-29T22:11:31.855Z,5.58
2019-03-29T22:14:02.724Z,5.50
2019-03-29T22:16:33.475Z,5.53
2019-03-29T22:19:04.128Z,5.54
2019-03-29T22:21:34.984Z,5.46
2019-03-29T22:24:05.623Z,5.45
2019-03-29T22:26:36.373Z,5.50
2019-03-29T22:29:06.961Z,5.50
2019-03-29T22:31:37.795Z,5.50
2019-03-29T22:34:08.424Z,5.58
2019-03-29T22:36:39.200Z,5.73
2019-03-29T22:39:09.731Z,5.80
2019-03-29T22:41:40.606Z,6.00
2019-03-29T22:44:11.358Z,6.04
2019-03-29T22:46:42.111Z,5.98
2019-03-29T22:49:12.763Z,6.08
2019-03-29T22:51:43.621Z,6.05
2019-03-29T22:54:14.253Z,5.95
2019-03-29T22:56:45.025Z,5.92
2019-03-29T22:59:15.680Z,5.85
2019-03-29T23:01:46.742Z,5.83
2019-03-29T23:04:17.490Z,5.81
2019-03-29T23:06:48.141Z,5.76
2019-03-29T23:09:18.879Z,5.74
2019-03-29T23:11:50.887Z,5.76
2019-03-29T23:14:21.617Z,5.77
2019-03-29T23:16:52.387Z,5.72
2019-03-29T23:19:23.043Z,5.78
2019-03-29T23:21:53.896Z,5.73
2019-03-29T23:24:24.531Z,5.66
2019-03-29T23:26:55.284Z,5.65
2019-03-29T23:29:25.935Z,5.72
2019-03-29T23:31:56.809Z,5.70
2019-03-29T23:34:27.564Z,5.59
2019-03-29T23:36:58.314Z,5.53
2019-03-29T23:39:28.968Z,5.41
2019-03-29T23:41:59.823Z,5.38
2019-03-29T23:44:30.456Z,5.14
2019-03-29T23:47:01.228Z,4.93
2019-03-29T23:49:31.880Z,4.91
2019-03-29T23:52:02.728Z,4.87
2019-03-29T23:54:33.491Z,4.80
2019-03-29T23:57:04.349Z,4.63
2019-03-29T23:59:35.203Z,4.44
